Longview, WA

2:10 PM PST on January 19, 2017 (GMT -0800)
Old West Side | | Change Station

Elev 30 ft 46.14 °N, 122.95 °W | Updated 14 seconds ago

Overcast
Overcast
49.5 °F
Feels Like 50 °F
N
2.7
Wind Variable Wind from ESE

Today
High -- | Low -- °F
--% Chance of Precip.
Yesterday
High -- | Low -- °F
Precip. -- in
Pressure 29.57 in
Visibility -9999.0 miles
Clouds Few 2800 ft
Mostly Cloudy 3800 ft
Overcast 10000 ft
Windchill 50 °F
Dew Point 44 °F
Humidity 81%
Rainfall 0.00 in
Snow Depth Not available.
7:47 AM 4:58 PM
Waning Gibbous, 50% visible
METAR KKLS 192156Z AUTO 16010G16KT FEW028 BKN038 OVC100 09/06 A2956 RMK AO2 SLP013 T00940056 PWINO $
Pressure 29.57 in
Visibility -9999.0 miles
Clouds Few 2800 ft
Mostly Cloudy 3800 ft
Overcast 10000 ft
Windchill 50 °F
Dew Point 44 °F
Humidity 81%
Rainfall 0.00 in
Snow Depth Not available.
7:47 AM 4:58 PM
Waning Gibbous, 50% visible
METAR KKLS 192156Z AUTO 16010G16KT FEW028 BKN038 OVC100 09/06 A2956 RMK AO2 SLP013 T00940056 PWINO $

Get Your Daily Forecast Email!

Thanks for signing up!

Be on the lookout for a verification email in your inbox.

You'll start receiving the daily forecast at 8 AM.

×

10-Day Weather Forecast

Almanac

Astronomy

Jan. 19, 2017 Rise Set
Actual Time
Civil Twilight
Nautical Twilight
Astronomical Twilight
Moon
Length of Visible Light
Length of Day
Tomorrow will be .
, % of the Moon is Illuminated

Today's Extremes

State Highs State Lows

Community

WunderPhotos

Upload Photos

1,962,540 photos uploaded!

WunderBlog® & News

Nearby

Air Quality

  Air Quality AQ Index Pollutant
Not available.

Snow Depth

Station Depth Elevation

Earthquake Activity

City Distance Mag. Time & Date
Minimum magnitude displayed is 2.5.

Coastal Water Temperatures

Place Temperature

Stations

Nearby Weather Stations

Station Location Temp. Windchill Dew Point Humidity Wind Precip. Elev Updated Type
                   

Watches & Warnings

Small Craft for Rough Bar Advisory
Issued: 8:50 AM PST Jan. 19, 2017 – National Weather Service

... Small Craft Advisory for rough bar remains in effect until
4 PM PST this afternoon...

* in the Main Channel...

* general seas... 12 to 14 ft through tonight.

* First Ebb... around 10 am this morning. Seas near 17 ft with
breakers likely.

* Second Ebb... around 10 PM this evening. Seas near 18 ft with
breakers possible.

Precautionary/preparedness actions...

A Small Craft Advisory for rough bar means that wave conditions
are expected to be hazardous to small craft in or near Harbor
entrances.




Http://www.Weather.Gov/Portland